Time;durP1;ratioP1;P1;durP2;ratioP2;P2;SDS_P1;SDS_P2;PMS_P1;PMS_P2;Temp;Humidity;BMP_temperature;BMP_pressure;BME280_temperature;BME280_humidity;BME280_pressure;Samples;Min_cycle;Max_cycle;Signal;HPM_P1;HPM_P2
2022/10/28 00:03:01;;;;;;;11.13;6.10;;;15.80;99.90;;;;;;10423537;28;20218;-82
2022/10/28 00:08:03;;;;;;;9.23;6.37;;;15.80;99.90;;;;;;10407499;28;20186;-82
2022/10/28 00:13:07;;;;;;;8.37;7.47;;;15.80;99.90;;;;;;10424407;28;20217;-83
2022/10/28 00:18:10;;;;;;;15.33;11.30;;;15.80;99.90;;;;;;10407363;28;20678;-80
2022/10/28 00:23:30;;;;;;;8.13;6.43;;;15.80;99.90;;;;;;10425158;28;20224;-82
2022/10/28 00:28:42;;;;;;;9.87;7.03;;;15.80;99.90;;;;;;10423168;28;20198;-78
2022/10/28 00:33:45;;;;;;;8.73;6.80;;;15.80;99.90;;;;;;10433445;28;20225;-82
2022/10/28 00:38:49;;;;;;;18.93;10.50;;;15.80;99.90;;;;;;10422402;28;20233;-81
2022/10/28 00:43:54;;;;;;;13.70;8.60;;;15.70;99.90;;;;;;10424439;28;20213;-80
2022/10/28 00:49:02;;;;;;;7.20;5.90;;;15.70;99.90;;;;;;10384787;28;20186;-79
2022/10/28 00:54:05;;;;;;;13.17;7.60;;;15.80;99.90;;;;;;10381501;28;20621;-80
2022/10/28 00:59:16;;;;;;;14.93;7.70;;;15.80;99.90;;;;;;10419420;28;20297;-80
2022/10/28 01:04:19;;;;;;;7.07;6.07;;;15.90;99.90;;;;;;10476157;22;20244;-81
2022/10/28 01:09:21;;;;;;;8.80;6.80;;;15.90;99.90;;;;;;10501430;28;20181;-80
2022/10/28 01:14:36;;;;;;;9.40;6.90;;;15.90;99.90;;;;;;10496328;28;20215;-80
2022/10/28 01:20:05;;;;;;;10.03;6.50;;;16.00;99.90;;;;;;10459442;28;20181;-80
2022/10/28 01:25:34;;;;;;;16.33;7.33;;;15.90;99.90;;;;;;10461642;28;20658;-80
2022/10/28 01:30:57;;;;;;;10.03;6.60;;;15.90;99.90;;;;;;10458641;28;20546;-81
2022/10/28 01:36:06;;;;;;;11.90;6.70;;;16.00;99.90;;;;;;10491666;28;20213;-81
2022/10/28 01:41:14;;;;;;;12.70;6.83;;;15.90;99.90;;;;;;10469375;28;20197;-79
2022/10/28 01:46:24;;;;;;;8.00;6.90;;;15.90;99.90;;;;;;10494715;28;20350;-80
2022/10/28 01:51:31;;;;;;;11.43;6.73;;;15.80;99.90;;;;;;10496051;28;20283;-80
2022/10/28 01:56:36;;;;;;;16.27;8.07;;;15.80;99.90;;;;;;10478362;28;20217;-80
2022/10/28 02:01:40;;;;;;;10.00;6.80;;;15.70;99.90;;;;;;10473782;28;20193;-80
2022/10/28 02:06:46;;;;;;;10.77;7.10;;;15.70;99.90;;;;;;10477199;28;20246;-81
2022/10/28 02:12:25;;;;;;;13.53;6.87;;;15.60;99.90;;;;;;10497981;28;20189;-81
2022/10/28 02:17:36;;;;;;;15.07;7.47;;;15.70;99.90;;;;;;10475649;28;20224;-80
2022/10/28 02:22:49;;;;;;;9.07;7.67;;;15.60;99.90;;;;;;10496941;28;20212;-80
2022/10/28 02:27:57;;;;;;;13.10;7.67;;;15.60;99.90;;;;;;10493311;28;20195;-80
2022/10/28 02:33:06;;;;;;;7.80;7.10;;;15.60;99.90;;;;;;10492409;28;20595;-79
2022/10/28 02:38:12;;;;;;;8.33;7.10;;;15.60;99.90;;;;;;10466964;28;20224;-80
2022/10/28 02:43:17;;;;;;;8.50;7.50;;;15.50;99.90;;;;;;10481861;28;20220;-80
2022/10/28 02:48:25;;;;;;;11.07;8.00;;;15.50;99.90;;;;;;10483051;28;20726;-81
2022/10/28 02:53:33;;;;;;;27.30;14.20;;;15.50;99.90;;;;;;10467924;28;20315;-80
2022/10/28 02:58:39;;;;;;;10.47;7.80;;;15.40;99.90;;;;;;10459361;28;20262;-80
2022/10/28 03:03:43;;;;;;;20.27;9.60;;;15.40;99.90;;;;;;10481614;28;20719;-80
2022/10/28 03:08:45;;;;;;;14.40;11.67;;;15.40;99.90;;;;;;10472898;28;20283;-80
2022/10/28 03:13:47;;;;;;;13.57;10.10;;;15.30;99.90;;;;;;10488582;28;20216;-80
2022/10/28 03:18:50;;;;;;;15.47;8.20;;;15.30;99.90;;;;;;10488951;28;20272;-80
2022/10/28 03:23:52;;;;;;;11.33;6.90;;;15.30;99.90;;;;;;10491850;28;20751;-81
2022/10/28 03:28:54;;;;;;;10.30;8.40;;;15.30;99.90;;;;;;10491401;28;20670;-81
2022/10/28 03:33:58;;;;;;;9.50;8.73;;;15.40;99.90;;;;;;10472752;28;20225;-81
2022/10/28 03:39:00;;;;;;;12.33;10.37;;;15.40;99.90;;;;;;10489850;28;20216;-81
2022/10/28 03:44:02;;;;;;;11.27;8.50;;;15.40;99.90;;;;;;10485080;28;20569;-80
2022/10/28 03:49:05;;;;;;;11.07;7.93;;;15.50;99.90;;;;;;10490068;28;20189;-80
2022/10/28 03:54:07;;;;;;;14.17;10.70;;;15.50;99.90;;;;;;10490848;28;20226;-80
2022/10/28 03:59:10;;;;;;;11.50;9.67;;;15.60;99.90;;;;;;10469413;28;20224;-80
2022/10/28 04:04:13;;;;;;;13.07;11.87;;;15.60;99.90;;;;;;10476215;28;20259;-79
2022/10/28 04:09:15;;;;;;;12.63;10.40;;;15.60;99.90;;;;;;10494677;28;20185;-80
2022/10/28 04:14:17;;;;;;;13.70;10.40;;;15.60;99.90;;;;;;10482085;28;20699;-80
2022/10/28 04:19:21;;;;;;;12.83;10.37;;;15.60;99.90;;;;;;10483225;28;20262;-79
2022/10/28 04:24:23;;;;;;;12.77;11.43;;;15.70;99.90;;;;;;10488481;28;20213;-80
2022/10/28 04:29:25;;;;;;;13.40;10.40;;;15.70;99.90;;;;;;10485417;28;20628;-81
2022/10/28 04:34:28;;;;;;;14.13;11.23;;;15.80;99.90;;;;;;10481528;28;20201;-80
2022/10/28 04:39:30;;;;;;;16.70;10.77;;;15.80;99.90;;;;;;10476993;28;20223;-80
2022/10/28 04:44:32;;;;;;;13.23;9.97;;;15.80;99.90;;;;;;10480585;28;20224;-80
2022/10/28 04:49:35;;;;;;;13.63;9.97;;;15.80;99.90;;;;;;10479308;28;20196;-80
2022/10/28 04:54:38;;;;;;;16.67;10.13;;;15.80;99.90;;;;;;10474562;28;20220;-81
2022/10/28 04:59:40;;;;;;;10.97;9.97;;;15.80;99.90;;;;;;10498548;28;20213;-80
2022/10/28 05:04:43;;;;;;;15.30;9.87;;;15.90;99.90;;;;;;10488858;28;20684;-81
2022/10/28 05:09:45;;;;;;;13.63;9.70;;;15.90;99.90;;;;;;10492636;28;20216;-80
2022/10/28 05:14:47;;;;;;;10.80;9.80;;;15.90;99.90;;;;;;10493731;28;20213;-81
2022/10/28 05:19:51;;;;;;;14.60;6.80;;;15.90;99.90;;;;;;10493480;28;20255;-80
2022/10/28 05:24:53;;;;;;;10.50;9.40;;;15.80;99.90;;;;;;10501569;28;20641;-80
2022/10/28 05:29:55;;;;;;;12.87;10.77;;;15.80;99.90;;;;;;10477045;28;20224;-80
2022/10/28 05:34:58;;;;;;;12.93;11.57;;;15.80;99.90;;;;;;10476215;28;20698;-81
2022/10/28 05:40:00;;;;;;;11.17;10.03;;;15.80;99.90;;;;;;10479102;28;20251;-80
2022/10/28 05:45:02;;;;;;;12.70;11.53;;;15.80;99.90;;;;;;10476843;28;20216;-80
2022/10/28 05:50:06;;;;;;;13.60;9.60;;;15.70;99.90;;;;;;10458069;28;20675;-80
2022/10/28 05:55:09;;;;;;;15.60;11.50;;;15.70;99.90;;;;;;10472207;28;20208;-80
2022/10/28 06:00:21;;;;;;;11.37;10.40;;;15.60;99.90;;;;;;10503361;28;20222;-81
2022/10/28 06:05:27;;;;;;;12.47;9.97;;;15.60;99.90;;;;;;10478175;28;20226;-81
2022/10/28 06:10:29;;;;;;;11.40;9.23;;;15.60;99.90;;;;;;10490756;28;20200;-81
2022/10/28 06:15:31;;;;;;;12.33;10.97;;;15.70;99.90;;;;;;10505767;28;20212;-82
2022/10/28 06:20:35;;;;;;;15.97;11.20;;;15.60;99.90;;;;;;10475826;28;20204;-82
2022/10/28 06:25:37;;;;;;;13.93;9.80;;;15.60;99.90;;;;;;10482018;28;20299;-82
2022/10/28 06:30:39;;;;;;;11.17;8.90;;;15.70;99.90;;;;;;10473272;28;20192;-81
2022/10/28 06:35:42;;;;;;;14.60;8.37;;;15.60;99.90;;;;;;10463678;28;20216;-81
2022/10/28 06:40:44;;;;;;;11.90;8.37;;;15.70;99.90;;;;;;10493233;28;20200;-82
2022/10/28 06:45:47;;;;;;;10.40;8.10;;;15.70;99.90;;;;;;10493777;28;20252;-82
2022/10/28 06:50:50;;;;;;;11.83;9.77;;;15.70;99.90;;;;;;10483427;28;20542;-82
2022/10/28 06:55:53;;;;;;;9.43;8.53;;;15.80;99.90;;;;;;10478666;28;20749;-81
2022/10/28 07:00:55;;;;;;;10.73;8.30;;;15.80;99.90;;;;;;10483434;28;20223;-81
2022/10/28 07:05:59;;;;;;;8.63;7.73;;;15.90;99.90;;;;;;10466912;28;20675;-82
2022/10/28 07:11:02;;;;;;;12.17;8.33;;;16.00;99.90;;;;;;10480661;28;20264;-81
2022/10/28 07:16:05;;;;;;;11.67;8.97;;;16.10;99.90;;;;;;10469442;28;20212;-82
2022/10/28 07:21:08;;;;;;;9.20;8.30;;;16.10;99.90;;;;;;10495973;28;20197;-82
2022/10/28 07:26:10;;;;;;;11.67;10.47;;;16.20;99.90;;;;;;10496905;28;20762;-82
2022/10/28 07:31:12;;;;;;;20.40;12.30;;;16.30;99.90;;;;;;10495758;28;20197;-81
2022/10/28 07:36:15;;;;;;;25.90;17.83;;;16.40;99.90;;;;;;10497059;28;20270;-81
2022/10/28 07:41:19;;;;;;;19.80;14.20;;;16.50;99.90;;;;;;10499422;28;20200;-81
2022/10/28 07:46:21;;;;;;;16.80;11.50;;;16.60;99.90;;;;;;10506795;28;20265;-80
2022/10/28 07:51:25;;;;;;;11.13;9.67;;;16.60;99.90;;;;;;10478062;28;20212;-81
2022/10/28 07:56:27;;;;;;;12.67;9.77;;;16.70;99.90;;;;;;10482226;28;20741;-81
2022/10/28 08:01:29;;;;;;;19.93;10.03;;;16.70;99.90;;;;;;10474035;28;20540;-81
2022/10/28 08:06:35;;;;;;;12.33;8.40;;;16.80;99.90;;;;;;10470274;28;20590;-80
2022/10/28 08:11:37;;;;;;;10.30;8.70;;;16.90;99.90;;;;;;10470530;28;20196;-83
2022/10/28 08:16:39;;;;;;;9.13;7.73;;;17.00;99.90;;;;;;10469312;28;20658;-81
2022/10/28 08:21:42;;;;;;;11.27;7.40;;;17.10;99.90;;;;;;10470715;28;20256;-82
2022/10/28 08:26:44;;;;;;;13.40;8.40;;;17.20;99.90;;;;;;10492592;28;20600;-82
2022/10/28 08:31:46;;;;;;;9.80;8.80;;;17.30;99.90;;;;;;10493097;28;20242;-81
2022/10/28 08:36:49;;;;;;;15.53;9.43;;;17.30;99.90;;;;;;10490451;28;20205;-82
2022/10/28 08:41:59;;;;;;;14.30;8.93;;;17.40;99.90;;;;;;10464335;28;20570;-82
2022/10/28 08:47:13;;;;;;;13.77;7.87;;;17.50;99.90;;;;;;10470625;28;20188;-81
2022/10/28 08:52:25;;;;;;;13.07;9.10;;;17.50;99.90;;;;;;10475436;28;20193;-80
2022/10/28 08:57:36;;;;;;;10.07;8.00;;;17.60;99.90;;;;;;10462162;28;20209;-81
2022/10/28 09:02:50;;;;;;;10.83;7.13;;;17.70;99.90;;;;;;10502877;28;20292;-83
2022/10/28 09:07:55;;;;;;;14.80;10.87;;;17.80;99.90;;;;;;10492644;28;20239;-81
2022/10/28 09:13:06;;;;;;;17.00;11.50;;;17.90;99.90;;;;;;10479846;28;20638;-83
2022/10/28 09:18:15;;;;;;;18.00;11.60;;;17.90;99.90;;;;;;10468462;28;20205;-81
2022/10/28 09:23:22;;;;;;;21.33;10.97;;;18.00;99.90;;;;;;10485345;28;20221;-83
2022/10/28 09:28:42;;;;;;;17.27;9.23;;;18.10;99.90;;;;;;10485805;28;20202;-83
2022/10/28 09:33:55;;;;;;;22.93;11.80;;;18.10;99.90;;;;;;10484768;28;20245;-82
2022/10/28 09:39:00;;;;;;;19.03;8.20;;;18.20;99.90;;;;;;10483337;28;20255;-83
2022/10/28 09:44:08;;;;;;;21.80;9.60;;;18.30;99.90;;;;;;10482208;28;20209;-83
2022/10/28 09:49:16;;;;;;;12.80;7.23;;;18.20;99.90;;;;;;10460118;28;20193;-80
2022/10/28 09:54:27;;;;;;;11.53;8.03;;;18.20;99.90;;;;;;10457178;28;20711;-80
2022/10/28 09:59:29;;;;;;;15.37;8.83;;;18.30;99.90;;;;;;10477547;28;20236;-80
2022/10/28 10:04:31;;;;;;;10.03;8.03;;;18.40;99.90;;;;;;10506669;28;20224;-79
2022/10/28 10:09:37;;;;;;;9.40;6.53;;;18.70;99.90;;;;;;10496211;28;20192;-79
2022/10/28 10:14:41;;;;;;;10.00;8.00;;;18.80;99.90;;;;;;10495693;28;20702;-79
2022/10/28 10:20:02;;;;;;;8.90;6.37;;;18.90;99.90;;;;;;10496597;28;20211;-80
2022/10/28 10:25:28;;;;;;;7.23;6.50;;;18.80;99.90;;;;;;10496060;28;20237;-80
2022/10/28 10:30:33;;;;;;;9.03;8.13;;;18.80;99.90;;;;;;10497456;28;20196;-81
2022/10/28 10:35:37;;;;;;;10.83;6.17;;;18.90;99.90;;;;;;10473619;28;20225;-82
2022/10/28 10:40:49;;;;;;;9.30;7.07;;;18.90;99.90;;;;;;10481264;28;20309;-83
2022/10/28 10:45:58;;;;;;;13.93;9.33;;;19.00;99.90;;;;;;10478630;28;20247;-83
2022/10/28 10:51:06;;;;;;;14.47;7.97;;;19.00;99.90;;;;;;10498271;28;20463;-82
2022/10/28 10:56:11;;;;;;;12.57;8.40;;;19.00;99.90;;;;;;10500829;28;20216;-82
2022/10/28 11:01:19;;;;;;;9.63;7.77;;;19.10;99.90;;;;;;10501408;28;20696;-81
2022/10/28 11:06:24;;;;;;;16.03;11.50;;;19.10;99.90;;;;;;10480143;28;20300;-83
2022/10/28 11:11:35;;;;;;;20.10;10.40;;;19.20;99.90;;;;;;10480136;28;20212;-81
2022/10/28 11:16:48;;;;;;;17.60;10.30;;;19.20;99.90;;;;;;10486297;28;20228;-81
2022/10/28 11:22:09;;;;;;;18.17;11.63;;;19.30;99.90;;;;;;10471239;28;20211;-81
2022/10/28 11:27:23;;;;;;;11.00;9.40;;;19.30;99.90;;;;;;10486362;28;20196;-81
2022/10/28 11:32:38;;;;;;;15.80;13.80;;;19.30;99.90;;;;;;10447669;28;20303;-81
2022/10/28 11:37:58;;;;;;;12.73;8.23;;;19.40;99.90;;;;;;10471246;28;20201;-81
2022/10/28 11:43:17;;;;;;;16.60;7.20;;;19.40;99.90;;;;;;10460078;28;20794;-80
2022/10/28 11:48:35;;;;;;;12.40;8.80;;;19.40;99.90;;;;;;10490006;28;20246;-81
2022/10/28 11:53:59;;;;;;;15.53;6.97;;;19.30;99.90;;;;;;10470623;28;20703;-82
2022/10/28 11:59:33;;;;;;;8.00;5.37;;;19.20;99.90;;;;;;10471663;28;20233;-81
2022/10/28 12:05:00;;;;;;;9.93;4.83;;;19.30;99.90;;;;;;10491846;28;20327;-82
2022/10/28 12:10:17;;;;;;;7.23;5.40;;;19.60;99.90;;;;;;10482228;28;20225;-81
2022/10/28 12:15:27;;;;;;;8.10;6.93;;;19.80;99.90;;;;;;10503282;28;20211;-81
2022/10/28 12:20:33;;;;;;;14.20;7.23;;;19.90;99.90;;;;;;10502145;28;20579;-82
2022/10/28 12:25:39;;;;;;;11.33;7.23;;;20.00;99.90;;;;;;10493060;28;20228;-82
2022/10/28 12:30:43;;;;;;;8.70;7.53;;;19.90;99.90;;;;;;10509678;28;20195;-81
2022/10/28 12:35:50;;;;;;;13.83;6.97;;;19.90;99.90;;;;;;10502985;28;20245;-84
2022/10/28 12:40:58;;;;;;;12.90;7.10;;;19.90;99.90;;;;;;10459618;28;20649;-82
2022/10/28 12:46:03;;;;;;;9.50;5.97;;;19.80;99.90;;;;;;10473518;28;20675;-81
2022/10/28 12:51:12;;;;;;;12.63;6.73;;;19.80;99.90;;;;;;10476645;28;20213;-81
2022/10/28 12:56:18;;;;;;;12.33;7.00;;;19.80;99.90;;;;;;10476184;28;20522;-81
2022/10/28 13:01:25;;;;;;;16.53;7.40;;;19.60;99.90;;;;;;10468865;28;20217;-81
2022/10/28 13:06:50;;;;;;;10.30;7.07;;;19.50;99.90;;;;;;10489850;22;20251;-80
2022/10/28 13:12:27;;;;;;;11.23;7.33;;;19.40;99.90;;;;;;10453761;28;20200;-81
2022/10/28 13:17:42;;;;;;;10.93;7.50;;;19.50;99.90;;;;;;10431199;28;20300;-81
2022/10/28 13:22:53;;;;;;;9.77;7.30;;;19.60;99.90;;;;;;10415789;28;20190;-81
2022/10/28 13:27:57;;;;;;;13.70;7.60;;;19.50;99.90;;;;;;10459123;28;20212;-79
2022/10/28 13:33:07;;;;;;;13.63;8.80;;;19.40;99.90;;;;;;10425408;28;20228;-81
2022/10/28 13:38:11;;;;;;;8.33;7.60;;;19.30;99.90;;;;;;10420686;28;20292;-78
2022/10/28 13:43:19;;;;;;;14.23;7.10;;;19.20;99.90;;;;;;10436971;28;20304;-80
2022/10/28 13:48:53;;;;;;;9.63;7.50;;;19.30;99.90;;;;;;10426744;28;20189;-80
2022/10/28 13:53:58;;;;;;;13.37;8.37;;;19.40;99.90;;;;;;10451856;28;20223;-84
2022/10/28 13:59:02;;;;;;;7.67;6.03;;;19.40;99.90;;;;;;10469774;28;20213;-83
2022/10/28 14:04:06;;;;;;;12.33;7.97;;;19.50;99.90;;;;;;10439895;28;20238;-83
2022/10/28 14:09:20;;;;;;;16.00;7.30;;;19.60;99.90;;;;;;10438916;28;20197;-81
2022/10/28 14:14:23;;;;;;;11.07;7.07;;;19.70;99.90;;;;;;10457272;28;20251;-81
2022/10/28 14:19:26;;;;;;;13.10;7.47;;;19.80;99.90;;;;;;10438975;28;20259;-81
2022/10/28 14:24:34;;;;;;;7.90;7.10;;;19.90;99.90;;;;;;10439487;28;20229;-81
2022/10/28 14:29:43;;;;;;;15.30;6.47;;;20.00;99.90;;;;;;10439646;28;20191;-83
2022/10/28 14:34:46;;;;;;;11.57;6.83;;;20.10;99.90;;;;;;10445616;28;20209;-82
2022/10/28 14:40:02;;;;;;;9.73;7.23;;;20.20;99.90;;;;;;10449179;28;20221;-83
2022/10/28 14:45:23;;;;;;;11.30;6.87;;;20.30;99.90;;;;;;10444707;28;20581;-81
2022/10/28 14:50:37;;;;;;;10.50;6.20;;;20.20;99.90;;;;;;10446750;28;20471;-81
2022/10/28 14:55:44;;;;;;;9.80;7.43;;;20.10;99.90;;;;;;10437222;28;20296;-81
2022/10/28 15:00:55;;;;;;;13.87;8.87;;;20.10;99.90;;;;;;10432352;28;20229;-81
2022/10/28 15:06:02;;;;;;;10.40;8.87;;;20.10;99.90;;;;;;10432444;28;20225;-81
2022/10/28 15:11:07;;;;;;;16.00;9.33;;;20.10;99.90;;;;;;10431603;28;20220;-81
2022/10/28 15:16:20;;;;;;;12.90;8.33;;;20.10;99.90;;;;;;10431188;28;20214;-80
2022/10/28 15:21:22;;;;;;;11.37;7.00;;;20.10;99.90;;;;;;10447507;28;20226;-80
2022/10/28 15:26:26;;;;;;;15.40;7.20;;;20.00;99.90;;;;;;10431794;28;20218;-79
2022/10/28 15:31:28;;;;;;;12.47;6.97;;;20.00;99.90;;;;;;10417280;28;20201;-79
2022/10/28 15:36:31;;;;;;;18.97;10.47;;;20.00;99.90;;;;;;10427835;28;20237;-81
2022/10/28 15:41:45;;;;;;;12.87;8.10;;;20.00;99.90;;;;;;10446357;28;20673;-81
2022/10/28 15:46:49;;;;;;;14.60;8.20;;;20.10;99.90;;;;;;10443301;28;20540;-80
2022/10/28 15:52:34;;;;;;;14.63;9.90;;;20.10;99.90;;;;;;10452990;28;20261;-83
2022/10/28 15:57:49;;;;;;;18.57;13.30;;;20.10;99.90;;;;;;10423768;28;20197;-81
2022/10/28 16:02:57;;;;;;;15.40;13.80;;;20.10;99.90;;;;;;10420241;28;20233;-79
2022/10/28 16:08:00;;;;;;;13.97;9.87;;;20.00;99.90;;;;;;10424326;28;20194;-78
2022/10/28 16:13:05;;;;;;;19.73;10.50;;;19.90;99.90;;;;;;10427486;28;20290;-79
2022/10/28 16:18:09;;;;;;;42.73;24.77;;;19.80;99.90;;;;;;10433563;28;20731;-83
2022/10/28 16:23:17;;;;;;;11.30;7.70;;;19.70;99.90;;;;;;10422000;28;20392;-78
2022/10/28 16:28:29;;;;;;;16.00;8.63;;;19.60;99.90;;;;;;10430027;28;20541;-78
2022/10/28 16:33:37;;;;;;;14.70;7.50;;;19.60;99.90;;;;;;10416884;28;20309;-79
2022/10/28 16:38:39;;;;;;;10.60;6.77;;;19.50;99.90;;;;;;10426380;28;20772;-80
2022/10/28 16:43:43;;;;;;;11.83;6.37;;;19.50;99.90;;;;;;10432604;28;20214;-81
2022/10/28 16:48:45;;;;;;;9.70;6.87;;;19.40;99.90;;;;;;10446183;28;20205;-80
2022/10/28 16:53:49;;;;;;;11.07;5.83;;;19.50;99.90;;;;;;10435505;28;20251;-81
2022/10/28 16:58:53;;;;;;;13.10;6.60;;;19.50;99.90;;;;;;10437880;28;20264;-80
2022/10/28 17:03:55;;;;;;;11.33;6.40;;;19.50;99.90;;;;;;10433227;28;20229;-80
2022/10/28 17:08:57;;;;;;;11.77;6.27;;;19.50;99.90;;;;;;10428275;28;20198;-81
2022/10/28 17:14:01;;;;;;;12.20;8.20;;;19.40;99.90;;;;;;10449010;28;20289;-80
2022/10/28 17:19:03;;;;;;;18.70;8.30;;;19.30;99.90;;;;;;10437598;28;20248;-80
2022/10/28 17:24:05;;;;;;;14.20;8.00;;;19.30;99.90;;;;;;10433260;28;20232;-80
2022/10/28 17:29:13;;;;;;;11.33;8.40;;;19.20;99.90;;;;;;10419372;28;20657;-80
2022/10/28 17:34:15;;;;;;;12.97;9.77;;;19.10;99.90;;;;;;10443887;28;20225;-80
2022/10/28 17:39:17;;;;;;;16.87;9.00;;;19.00;99.90;;;;;;10431608;28;20656;-79
2022/10/28 17:44:20;;;;;;;15.00;10.50;;;18.90;99.90;;;;;;10415296;28;20300;-81
2022/10/28 17:49:22;;;;;;;14.60;9.70;;;18.80;99.90;;;;;;10435038;28;20657;-82
2022/10/28 17:54:24;;;;;;;19.57;8.37;;;18.70;99.90;;;;;;10417210;28;20280;-81
2022/10/28 17:59:28;;;;;;;13.40;8.60;;;18.60;99.90;;;;;;10414571;28;20772;-82
2022/10/28 18:04:30;;;;;;;16.40;8.87;;;18.50;99.90;;;;;;10419520;28;20244;-81
2022/10/28 18:09:32;;;;;;;16.50;7.60;;;18.40;99.90;;;;;;10431482;28;20205;-81
2022/10/28 18:14:36;;;;;;;12.07;7.97;;;18.40;99.90;;;;;;10418900;28;20229;-82
2022/10/28 18:19:38;;;;;;;16.00;8.50;;;18.30;99.90;;;;;;10418359;28;20293;-81
2022/10/28 18:24:40;;;;;;;19.87;9.60;;;18.20;99.90;;;;;;10420907;28;20591;-81
2022/10/28 18:29:43;;;;;;;17.87;9.57;;;18.10;99.90;;;;;;10419081;28;20190;-81
2022/10/28 18:34:45;;;;;;;14.40;9.33;;;18.10;99.90;;;;;;10423844;28;20221;-81
2022/10/28 18:39:48;;;;;;;10.53;7.70;;;18.00;99.90;;;;;;10445049;28;20281;-82
2022/10/28 18:44:57;;;;;;;19.33;10.33;;;18.00;99.90;;;;;;10467193;28;20283;-82
2022/10/28 18:49:59;;;;;;;14.83;10.10;;;17.90;99.90;;;;;;10475276;28;20215;-81
2022/10/28 18:55:01;;;;;;;17.27;9.10;;;17.90;99.90;;;;;;10468855;28;20218;-80
2022/10/28 19:00:06;;;;;;;10.43;9.43;;;17.90;99.90;;;;;;10452669;28;20243;-81
2022/10/28 19:05:08;;;;;;;14.40;8.23;;;17.90;99.90;;;;;;10487369;22;20229;-84
2022/10/28 19:10:10;;;;;;;23.17;9.40;;;17.80;99.90;;;;;;10452294;28;20185;-81
2022/10/28 19:15:16;;;;;;;13.33;9.70;;;17.90;99.90;;;;;;10477751;28;20248;-82
2022/10/28 19:20:18;;;;;;;15.80;8.30;;;17.80;99.90;;;;;;10473027;28;20221;-84
2022/10/28 19:25:20;;;;;;;9.67;7.77;;;17.80;99.90;;;;;;10468420;28;20221;-80
2022/10/28 19:30:26;;;;;;;10.63;7.03;;;17.70;99.90;;;;;;10443802;28;20205;-84
2022/10/28 19:35:28;;;;;;;18.40;8.30;;;17.70;99.90;;;;;;10443795;28;20217;-85
2022/10/28 19:40:32;;;;;;;15.00;7.30;;;17.70;99.90;;;;;;10450432;28;20218;-82
2022/10/28 19:45:35;;;;;;;13.87;7.20;;;17.70;99.90;;;;;;10447693;28;20240;-83
2022/10/28 19:50:37;;;;;;;11.20;7.30;;;17.70;99.90;;;;;;10471575;28;20202;-83
2022/10/28 19:55:40;;;;;;;15.00;8.20;;;17.70;99.90;;;;;;10436666;28;20300;-81
2022/10/28 20:00:43;;;;;;;13.50;7.10;;;17.70;99.90;;;;;;10434731;28;20419;-84
2022/10/28 20:05:49;;;;;;;13.10;7.00;;;17.70;99.90;;;;;;10432057;28;20288;-82
2022/10/28 20:10:57;;;;;;;10.80;7.43;;;17.70;99.90;;;;;;10442175;28;20582;-82
2022/10/28 20:16:03;;;;;;;11.13;7.40;;;17.70;99.90;;;;;;10460499;28;20705;-81
2022/10/28 20:21:06;;;;;;;15.20;7.00;;;17.70;99.90;;;;;;10425603;28;20315;-82
2022/10/28 20:26:09;;;;;;;13.30;8.10;;;17.70;99.90;;;;;;10441844;28;20245;-82
2022/10/28 20:31:19;;;;;;;12.07;7.23;;;17.70;99.90;;;;;;10425172;28;20727;-81
2022/10/28 20:36:23;;;;;;;16.10;7.00;;;17.60;99.90;;;;;;10460026;28;20336;-80
2022/10/28 20:41:26;;;;;;;15.37;7.13;;;17.60;99.90;;;;;;10453639;28;20221;-82
2022/10/28 20:46:30;;;;;;;17.33;8.97;;;17.60;99.90;;;;;;10432465;28;20691;-83
2022/10/28 20:51:33;;;;;;;24.47;9.50;;;17.50;99.90;;;;;;10455725;28;20197;-81
2022/10/28 20:56:37;;;;;;;16.77;8.13;;;17.50;99.90;;;;;;10443375;28;20229;-82
2022/10/28 21:01:41;;;;;;;16.80;8.17;;;17.40;99.90;;;;;;10459160;28;20244;-83
2022/10/28 21:06:43;;;;;;;15.43;8.00;;;17.30;99.90;;;;;;10457960;28;20312;-82
2022/10/28 21:11:45;;;;;;;15.33;8.00;;;17.30;99.90;;;;;;10431782;28;20587;-82
2022/10/28 21:16:51;;;;;;;14.00;7.13;;;17.20;99.90;;;;;;10452030;28;20228;-83
2022/10/28 21:21:53;;;;;;;9.77;7.80;;;17.20;99.90;;;;;;10422371;28;20217;-83
2022/10/28 21:26:55;;;;;;;15.63;7.60;;;17.20;99.90;;;;;;10423953;28;20244;-83
2022/10/28 21:31:59;;;;;;;10.73;8.20;;;17.10;99.90;;;;;;10421387;28;20291;-82
2022/10/28 21:37:01;;;;;;;16.77;8.33;;;17.10;99.90;;;;;;10436453;28;20274;-81
2022/10/28 21:42:03;;;;;;;13.03;7.70;;;17.00;99.90;;;;;;10457058;28;20231;-81
2022/10/28 21:47:06;;;;;;;12.07;7.67;;;17.00;99.90;;;;;;10455873;28;20229;-81
2022/10/28 21:52:08;;;;;;;12.77;7.87;;;16.90;99.90;;;;;;10437668;28;20630;-80
2022/10/28 21:57:10;;;;;;;14.23;6.93;;;16.90;99.90;;;;;;10436864;28;20284;-81
2022/10/28 22:02:14;;;;;;;13.90;8.93;;;16.90;99.90;;;;;;10454301;28;20570;-81
2022/10/28 22:07:16;;;;;;;16.67;8.10;;;16.90;99.90;;;;;;10421901;28;20710;-81
2022/10/28 22:12:18;;;;;;;13.57;7.97;;;16.90;99.90;;;;;;10439523;28;20292;-82
2022/10/28 22:17:21;;;;;;;13.83;7.27;;;16.80;99.90;;;;;;10456759;28;20705;-81
2022/10/28 22:22:24;;;;;;;12.70;7.90;;;16.80;99.90;;;;;;10423945;28;20232;-85
2022/10/28 22:27:26;;;;;;;11.67;7.80;;;16.80;99.90;;;;;;10436982;28;20639;-81
2022/10/28 22:32:30;;;;;;;13.10;7.80;;;16.80;99.90;;;;;;10453860;28;20203;-83
2022/10/28 22:37:32;;;;;;;16.23;8.10;;;16.70;99.90;;;;;;10454246;28;20717;-81
2022/10/28 22:42:34;;;;;;;13.90;8.00;;;16.70;99.90;;;;;;10462140;28;20249;-82
2022/10/28 22:47:37;;;;;;;11.37;7.40;;;16.70;99.90;;;;;;10453856;28;20229;-83
2022/10/28 22:52:39;;;;;;;10.47;7.67;;;16.60;99.90;;;;;;10454101;28;20182;-80
2022/10/28 22:57:44;;;;;;;17.67;8.17;;;16.60;99.90;;;;;;10436012;28;20220;-82
2022/10/28 23:02:48;;;;;;;13.07;8.30;;;16.60;99.90;;;;;;10441496;28;20312;-83
2022/10/28 23:07:53;;;;;;;8.73;7.10;;;16.60;99.90;;;;;;10464549;28;20567;-82
2022/10/28 23:13:07;;;;;;;16.50;8.07;;;16.50;99.90;;;;;;10466213;28;20825;-82
2022/10/28 23:18:19;;;;;;;11.20;7.50;;;16.50;99.90;;;;;;10426406;28;20224;-81
2022/10/28 23:23:21;;;;;;;11.57;7.37;;;16.40;99.90;;;;;;10437796;28;20241;-80
2022/10/28 23:28:24;;;;;;;14.40;7.63;;;16.30;99.90;;;;;;10454376;28;20253;-80
2022/10/28 23:33:28;;;;;;;10.77;7.17;;;16.30;99.90;;;;;;10455013;28;20205;-79
2022/10/28 23:38:30;;;;;;;14.77;8.47;;;16.30;99.90;;;;;;10436342;28;20564;-82
2022/10/28 23:43:32;;;;;;;12.40;7.50;;;16.20;99.90;;;;;;10418880;28;20221;-79
2022/10/28 23:48:36;;;;;;;10.50;7.13;;;16.20;99.90;;;;;;10453634;28;20734;-84
2022/10/28 23:53:38;;;;;;;14.33;7.20;;;16.20;99.90;;;;;;10436612;28;20399;-83
2022/10/28 23:58:40;;;;;;;11.20;7.53;;;16.10;99.90;;;;;;10462625;28;20554;-84
